Time;durP1;ratioP1;P1;durP2;ratioP2;P2;SDS_P1;SDS_P2;PMS_P1;PMS_P2;Temp;Humidity;BMP_temperature;BMP_pressure;BME280_temperature;BME280_humidity;BME280_pressure;Samples;Min_cycle;Max_cycle;Signal;HPM_P1;HPM_P2
2021/05/24 00:00:16;;;;;;;12.18;2.20;;;15.30;67.30;;;;;;5071789;28;20107;-62
2021/05/24 00:02:42;;;;;;;9.65;2.10;;;15.30;67.40;;;;;;5068200;28;20060;-62
2021/05/24 00:05:11;;;;;;;4.75;2.00;;;15.30;67.60;;;;;;5071066;28;20082;-62
2021/05/24 00:07:37;;;;;;;8.77;2.20;;;15.20;67.80;;;;;;5068047;28;20124;-62
2021/05/24 00:10:05;;;;;;;4.53;2.55;;;15.20;67.80;;;;;;5071616;28;20039;-62
2021/05/24 00:12:31;;;;;;;5.95;1.77;;;15.20;68.00;;;;;;5068472;28;20055;-62
2021/05/24 00:14:57;;;;;;;5.40;2.30;;;15.20;68.20;;;;;;5070687;28;20039;-62
2021/05/24 00:17:26;;;;;;;5.30;2.28;;;15.20;68.20;;;;;;5070707;28;20089;-62
2021/05/24 00:19:52;;;;;;;5.75;1.80;;;15.20;68.30;;;;;;5068268;28;20032;-62
2021/05/24 00:22:17;;;;;;;7.68;2.03;;;15.20;68.30;;;;;;5071460;28;20108;-62
2021/05/24 00:24:43;;;;;;;5.85;2.10;;;15.10;68.40;;;;;;5067051;28;20025;-62
2021/05/24 00:27:09;;;;;;;6.20;1.70;;;15.10;68.40;;;;;;5070686;28;20074;-62
2021/05/24 00:29:35;;;;;;;3.55;1.67;;;15.10;68.40;;;;;;5068186;28;20029;-62
2021/05/24 00:32:01;;;;;;;4.40;1.80;;;15.10;68.40;;;;;;5070594;28;20391;-62
2021/05/24 00:34:26;;;;;;;3.53;1.80;;;15.10;68.40;;;;;;5069723;28;20028;-62
2021/05/24 00:36:54;;;;;;;5.88;1.70;;;15.00;68.30;;;;;;5069097;28;20033;-62
2021/05/24 00:39:20;;;;;;;8.35;1.80;;;15.00;68.60;;;;;;5070581;28;20073;-62
2021/05/24 00:41:46;;;;;;;4.60;2.03;;;14.90;68.50;;;;;;5067620;28;20434;-62
2021/05/24 00:44:11;;;;;;;5.32;1.67;;;14.90;68.60;;;;;;5070729;28;20096;-62
2021/05/24 00:46:37;;;;;;;6.40;2.10;;;15.00;68.70;;;;;;5073365;28;20036;-62
2021/05/24 00:49:05;;;;;;;4.38;1.80;;;15.00;68.60;;;;;;5073839;28;20111;-62
2021/05/24 00:51:31;;;;;;;4.05;2.10;;;14.90;68.50;;;;;;5073951;28;20059;-62
2021/05/24 00:53:58;;;;;;;7.55;1.92;;;14.90;68.60;;;;;;5072812;28;20468;-62
2021/05/24 00:56:24;;;;;;;5.95;1.98;;;14.90;68.50;;;;;;5073903;28;20029;-62
2021/05/24 00:58:50;;;;;;;4.55;1.70;;;14.90;68.50;;;;;;5073574;28;20033;-62
2021/05/24 01:01:16;;;;;;;3.20;1.70;;;14.80;68.50;;;;;;5072882;28;20392;-62
2021/05/24 01:03:43;;;;;;;5.25;2.13;;;14.80;68.50;;;;;;5073731;28;20391;-62
2021/05/24 01:06:08;;;;;;;7.03;2.00;;;14.90;68.70;;;;;;5073363;28;20036;-62
2021/05/24 01:08:34;;;;;;;5.32;1.50;;;14.80;68.80;;;;;;5072797;28;20047;-62
2021/05/24 01:11:00;;;;;;;5.68;1.63;;;14.80;69.00;;;;;;5073384;28;20047;-62
2021/05/24 01:13:26;;;;;;;6.45;1.95;;;14.80;69.30;;;;;;5073555;28;20480;-62
2021/05/24 01:15:52;;;;;;;6.88;2.13;;;14.80;69.50;;;;;;5072630;28;20024;-62
2021/05/24 01:18:18;;;;;;;4.60;2.05;;;14.80;69.80;;;;;;5073123;28;20464;-62
2021/05/24 01:20:44;;;;;;;3.17;1.50;;;14.80;70.10;;;;;;5073265;28;20116;-62
2021/05/24 01:23:13;;;;;;;3.90;1.40;;;14.80;70.20;;;;;;5072592;28;20127;-62
2021/05/24 01:25:44;;;;;;;2.92;1.55;;;14.80;70.50;;;;;;5073187;28;20027;-62
2021/05/24 01:28:11;;;;;;;3.45;1.52;;;14.80;70.60;;;;;;5072867;28;20497;-63
2021/05/24 01:30:38;;;;;;;4.63;2.10;;;14.80;70.90;;;;;;5072475;28;20021;-62
2021/05/24 01:33:04;;;;;;;9.55;1.90;;;14.80;71.10;;;;;;5073169;28;20078;-62
2021/05/24 01:35:31;;;;;;;6.35;2.50;;;14.80;71.20;;;;;;5072051;28;20028;-62
2021/05/24 01:37:57;;;;;;;6.13;1.80;;;14.80;71.50;;;;;;5072551;28;20068;-62
2021/05/24 01:40:24;;;;;;;2.97;1.50;;;14.80;71.60;;;;;;5071585;28;20029;-62
2021/05/24 01:42:58;;;;;;;4.10;1.95;;;14.80;71.60;;;;;;5072451;28;20036;-62
2021/05/24 01:45:25;;;;;;;1.70;1.08;;;14.80;71.70;;;;;;5072954;28;20028;-62
2021/05/24 01:47:51;;;;;;;4.80;2.00;;;14.80;71.50;;;;;;5059111;28;20037;-62
2021/05/24 01:50:17;;;;;;;6.45;1.80;;;14.80;71.60;;;;;;5070940;28;20025;-62
2021/05/24 01:52:44;;;;;;;4.50;2.15;;;14.80;71.80;;;;;;5072685;28;20029;-62
2021/05/24 01:55:11;;;;;;;5.97;1.65;;;14.80;72.20;;;;;;5073333;28;20044;-62
2021/05/24 01:57:38;;;;;;;2.38;1.73;;;14.80;72.50;;;;;;5072150;28;20031;-62
2021/05/24 02:00:14;;;;;;;2.78;1.50;;;14.80;72.80;;;;;;5072762;28;20638;-62
2021/05/24 02:02:41;;;;;;;4.93;1.90;;;14.80;73.00;;;;;;5072690;28;20044;-62
2021/05/24 02:05:08;;;;;;;5.00;1.42;;;14.80;72.90;;;;;;5072079;28;20094;-62
2021/05/24 02:07:37;;;;;;;2.55;1.50;;;14.80;72.90;;;;;;5072155;28;20049;-62
2021/05/24 02:10:05;;;;;;;3.53;1.50;;;14.80;72.80;;;;;;5072677;28;20055;-62
2021/05/24 02:12:30;;;;;;;4.32;1.60;;;14.70;72.80;;;;;;5072074;28;20032;-62
2021/05/24 02:14:56;;;;;;;2.67;1.50;;;14.70;72.90;;;;;;5072509;28;20078;-62
2021/05/24 02:17:22;;;;;;;3.85;1.70;;;14.80;72.90;;;;;;5072438;28;20083;-62
2021/05/24 02:19:49;;;;;;;3.28;1.65;;;14.80;73.00;;;;;;5071847;28;20476;-62
2021/05/24 02:22:16;;;;;;;2.35;1.52;;;14.80;73.00;;;;;;5072496;28;20431;-62
2021/05/24 02:24:42;;;;;;;5.50;1.75;;;14.70;73.00;;;;;;5072055;28;20039;-62
2021/05/24 02:27:08;;;;;;;4.80;1.63;;;14.70;73.00;;;;;;5072082;28;20051;-62
2021/05/24 02:29:34;;;;;;;2.97;1.83;;;14.70;73.20;;;;;;5072650;28;20029;-62
2021/05/24 02:32:00;;;;;;;4.25;2.00;;;14.70;73.20;;;;;;5062664;28;20033;-62
2021/05/24 02:34:26;;;;;;;4.20;1.67;;;14.70;73.30;;;;;;5071926;28;20369;-62
2021/05/24 02:36:52;;;;;;;4.38;2.20;;;14.70;73.10;;;;;;5071927;28;20047;-62
2021/05/24 02:39:18;;;;;;;4.10;1.73;;;14.60;73.10;;;;;;5071825;28;20031;-62
2021/05/24 02:41:43;;;;;;;2.90;1.48;;;14.60;73.20;;;;;;5072314;28;20036;-62
2021/05/24 02:44:09;;;;;;;2.50;1.58;;;14.60;73.20;;;;;;5072400;28;20040;-62
2021/05/24 02:46:36;;;;;;;3.05;1.60;;;14.50;73.40;;;;;;5071652;28;20044;-62
2021/05/24 02:49:03;;;;;;;3.25;1.65;;;14.50;73.50;;;;;;5076129;28;20028;-62
2021/05/24 02:51:28;;;;;;;2.60;1.38;;;14.50;73.40;;;;;;5075932;28;20464;-62
2021/05/24 02:53:54;;;;;;;3.03;1.40;;;14.50;73.40;;;;;;5075661;28;20032;-62
2021/05/24 02:56:20;;;;;;;6.80;1.55;;;14.50;73.50;;;;;;5076234;28;20113;-62
2021/05/24 02:58:45;;;;;;;4.20;2.08;;;14.50;73.50;;;;;;5076018;28;20020;-62
2021/05/24 03:01:11;;;;;;;2.75;1.60;;;14.50;73.60;;;;;;5075271;28;20426;-62
2021/05/24 03:03:38;;;;;;;1.58;1.23;;;14.50;73.80;;;;;;5075834;28;20059;-62
2021/05/24 03:06:04;;;;;;;2.67;1.23;;;14.50;73.90;;;;;;5075399;28;20040;-62
2021/05/24 03:08:31;;;;;;;4.20;1.35;;;14.40;73.90;;;;;;5074963;28;20555;-62
2021/05/24 03:10:57;;;;;;;3.47;1.58;;;14.40;74.00;;;;;;5075801;28;20032;-62
2021/05/24 03:13:25;;;;;;;5.65;2.53;;;14.40;74.80;;;;;;5075697;28;20085;-62
2021/05/24 03:15:52;;;;;;;4.15;1.50;;;14.40;74.30;;;;;;5075279;28;20146;-62
2021/05/24 03:18:18;;;;;;;5.72;1.92;;;14.40;74.20;;;;;;5075581;28;20029;-62
2021/05/24 03:20:44;;;;;;;4.47;1.30;;;14.40;74.50;;;;;;5075309;28;20031;-62
2021/05/24 03:23:10;;;;;;;9.85;2.25;;;14.40;74.20;;;;;;5075272;28;20047;-62
2021/05/24 03:25:35;;;;;;;2.85;1.70;;;14.40;74.30;;;;;;5075446;28;20025;-62
2021/05/24 03:28:01;;;;;;;6.72;2.50;;;14.30;74.50;;;;;;5075264;28;20423;-62
2021/05/24 03:30:27;;;;;;;2.88;1.80;;;14.30;74.80;;;;;;5074966;28;20067;-62
2021/05/24 03:32:52;;;;;;;4.57;1.70;;;14.40;75.00;;;;;;5075191;28;20392;-62
2021/05/24 03:35:18;;;;;;;4.05;1.60;;;14.30;75.00;;;;;;5074891;28;20044;-62
2021/05/24 03:37:44;;;;;;;3.70;1.50;;;14.30;75.20;;;;;;5075212;28;20033;-62
2021/05/24 03:40:11;;;;;;;6.95;1.55;;;14.30;75.10;;;;;;5074965;28;20035;-62
2021/05/24 03:42:38;;;;;;;4.53;1.77;;;14.30;75.20;;;;;;5074384;28;20368;-62
2021/05/24 03:45:06;;;;;;;7.35;1.80;;;14.30;75.30;;;;;;5075279;28;20078;-62
2021/05/24 03:47:32;;;;;;;3.78;1.42;;;14.30;75.40;;;;;;5075031;28;20453;-62
2021/05/24 03:49:57;;;;;;;5.95;2.33;;;14.30;75.50;;;;;;5074464;28;20112;-62
2021/05/24 03:52:23;;;;;;;5.75;1.80;;;14.30;75.50;;;;;;5075328;28;20037;-62
2021/05/24 03:54:48;;;;;;;5.97;1.88;;;14.30;75.40;;;;;;5075023;28;20417;-62
2021/05/24 03:57:14;;;;;;;5.82;1.60;;;14.30;75.30;;;;;;5074460;28;20040;-62
2021/05/24 03:59:40;;;;;;;2.95;1.58;;;14.30;75.20;;;;;;5073850;28;20028;-62
2021/05/24 04:02:06;;;;;;;5.43;1.70;;;14.30;75.20;;;;;;5074605;28;20032;-62
2021/05/24 04:04:31;;;;;;;4.53;1.55;;;14.30;75.20;;;;;;5074361;28;20031;-62
2021/05/24 04:07:00;;;;;;;3.88;1.92;;;14.30;75.00;;;;;;5074691;28;20041;-62
2021/05/24 04:09:26;;;;;;;4.85;1.80;;;14.30;74.80;;;;;;5074385;28;20084;-62
2021/05/24 04:11:52;;;;;;;7.63;1.70;;;14.30;75.40;;;;;;5074068;28;20059;-62
2021/05/24 04:14:19;;;;;;;2.90;1.55;;;14.30;74.80;;;;;;5074620;28;20032;-62
2021/05/24 04:16:45;;;;;;;5.15;1.80;;;14.30;74.90;;;;;;5074218;28;20029;-62
2021/05/24 04:19:12;;;;;;;8.20;1.80;;;14.30;74.90;;;;;;5074068;28;20430;-62
2021/05/24 04:21:42;;;;;;;4.45;1.60;;;14.30;74.90;;;;;;5074999;28;20108;-62
2021/05/24 04:24:09;;;;;;;4.95;2.05;;;14.30;75.00;;;;;;5074236;28;20458;-62
2021/05/24 04:26:35;;;;;;;4.18;1.65;;;14.30;74.80;;;;;;5073964;28;20537;-62
2021/05/24 04:29:01;;;;;;;9.23;2.10;;;14.30;74.90;;;;;;5074307;28;20029;-62
2021/05/24 04:31:26;;;;;;;3.90;1.77;;;14.30;75.00;;;;;;5073681;28;20051;-62
2021/05/24 04:33:52;;;;;;;5.38;1.63;;;14.30;75.20;;;;;;5074219;28;20025;-62
2021/05/24 04:36:18;;;;;;;4.30;1.55;;;14.30;75.20;;;;;;5074381;28;20029;-63
2021/05/24 04:38:44;;;;;;;5.50;1.55;;;14.40;75.40;;;;;;5073391;28;20464;-62
2021/05/24 04:41:10;;;;;;;5.38;1.70;;;14.40;75.40;;;;;;5074002;28;20033;-62
2021/05/24 04:43:40;;;;;;;4.63;1.60;;;14.30;75.20;;;;;;5074104;28;20024;-62
2021/05/24 04:46:07;;;;;;;4.05;1.60;;;14.40;75.40;;;;;;5073055;28;20036;-63
2021/05/24 04:48:36;;;;;;;2.92;1.45;;;14.30;75.10;;;;;;5073291;28;20043;-62
2021/05/24 04:51:03;;;;;;;3.05;1.60;;;14.40;75.20;;;;;;5066366;28;20499;-62
2021/05/24 04:53:32;;;;;;;4.85;1.60;;;14.40;75.30;;;;;;5071956;28;20020;-62
2021/05/24 04:55:58;;;;;;;5.13;1.73;;;14.40;75.30;;;;;;5073637;28;20024;-62
2021/05/24 04:58:23;;;;;;;6.90;1.55;;;14.40;75.20;;;;;;5068255;28;20024;-60
2021/05/24 05:00:49;;;;;;;1.98;1.27;;;14.40;75.20;;;;;;5066403;28;20060;-61
2021/05/24 05:03:15;;;;;;;3.45;1.50;;;14.40;75.10;;;;;;5064923;28;20037;-61
2021/05/24 05:05:41;;;;;;;5.45;1.83;;;14.40;75.10;;;;;;5068035;28;20115;-61
2021/05/24 05:08:08;;;;;;;9.57;1.70;;;14.40;74.90;;;;;;5062449;28;20072;-61
2021/05/24 05:10:34;;;;;;;7.18;2.30;;;14.40;75.20;;;;;;5068223;28;20047;-61
2021/05/24 05:13:00;;;;;;;5.35;2.30;;;14.40;75.20;;;;;;5064021;28;20032;-61
2021/05/24 05:15:26;;;;;;;3.35;1.77;;;14.40;75.20;;;;;;5066603;28;20028;-61
2021/05/24 05:17:52;;;;;;;5.32;2.08;;;14.40;75.40;;;;;;5066298;28;20031;-61
2021/05/24 05:20:18;;;;;;;7.80;2.85;;;14.40;75.20;;;;;;5065014;28;20530;-60
2021/05/24 05:22:43;;;;;;;5.63;2.65;;;14.40;75.20;;;;;;5067683;28;20380;-61
2021/05/24 05:25:10;;;;;;;7.97;2.30;;;14.40;75.30;;;;;;5063021;28;20072;-61
2021/05/24 05:27:36;;;;;;;8.07;2.30;;;14.40;75.30;;;;;;5067785;28;20047;-61
2021/05/24 05:30:03;;;;;;;5.45;1.98;;;14.40;75.40;;;;;;5063471;28;20017;-61
2021/05/24 05:32:32;;;;;;;4.85;1.90;;;14.40;75.20;;;;;;5067326;28;20033;-61
2021/05/24 05:34:57;;;;;;;3.97;1.90;;;14.40;75.40;;;;;;5064589;28;20384;-61
2021/05/24 05:37:23;;;;;;;6.70;1.88;;;14.40;75.40;;;;;;5065406;28;20048;-61
2021/05/24 05:39:53;;;;;;;3.10;1.65;;;14.50;75.50;;;;;;5067755;28;20028;-61
2021/05/24 05:42:20;;;;;;;3.58;1.67;;;14.40;75.30;;;;;;5072175;28;20035;-61
2021/05/24 05:44:47;;;;;;;3.47;1.55;;;14.50;75.40;;;;;;5072767;28;20484;-61
2021/05/24 05:47:13;;;;;;;4.93;1.40;;;14.40;75.40;;;;;;5072927;28;20047;-61
2021/05/24 05:49:38;;;;;;;4.90;1.50;;;14.40;75.30;;;;;;5072167;28;20024;-61
2021/05/24 05:52:05;;;;;;;6.30;1.17;;;14.50;75.50;;;;;;5072872;28;20094;-61
2021/05/24 05:54:31;;;;;;;2.80;1.33;;;14.50;75.60;;;;;;5072382;28;20028;-61
2021/05/24 05:56:57;;;;;;;2.85;1.45;;;14.50;75.70;;;;;;5072577;28;20039;-60
2021/05/24 05:59:23;;;;;;;2.42;1.30;;;14.60;75.80;;;;;;5072964;28;20388;-61
2021/05/24 06:01:48;;;;;;;2.30;1.45;;;14.50;75.50;;;;;;5072468;28;20082;-61
2021/05/24 06:04:14;;;;;;;2.08;1.10;;;14.60;75.40;;;;;;5072173;28;20357;-60
2021/05/24 06:06:40;;;;;;;2.60;1.08;;;14.50;75.30;;;;;;5072438;28;20135;-61
2021/05/24 06:09:06;;;;;;;2.95;1.17;;;14.60;75.10;;;;;;5072276;28;20076;-61
2021/05/24 06:11:32;;;;;;;4.68;1.45;;;14.60;74.80;;;;;;5071989;28;20545;-61
2021/05/24 06:13:57;;;;;;;5.38;1.40;;;14.60;74.70;;;;;;5072664;28;20028;-61
2021/05/24 06:16:23;;;;;;;2.25;1.27;;;14.60;74.80;;;;;;5072563;28;20041;-61
2021/05/24 06:18:48;;;;;;;2.10;0.98;;;14.60;74.80;;;;;;5072053;28;20123;-61
2021/05/24 06:21:15;;;;;;;2.40;1.20;;;14.60;74.80;;;;;;5072330;28;20059;-61
2021/05/24 06:23:45;;;;;;;3.00;1.10;;;14.70;74.90;;;;;;5071948;28;20044;-61
2021/05/24 06:26:12;;;;;;;4.80;1.13;;;14.70;74.90;;;;;;5071938;28;20040;-61
2021/05/24 06:28:38;;;;;;;2.83;0.93;;;14.70;74.90;;;;;;5072448;28;20147;-61
2021/05/24 06:31:03;;;;;;;3.25;1.20;;;14.70;74.90;;;;;;5071784;28;20111;-61
2021/05/24 06:33:29;;;;;;;2.08;1.05;;;14.70;75.10;;;;;;5072520;28;20537;-61
2021/05/24 06:35:54;;;;;;;1.08;1.00;;;14.80;75.20;;;;;;5072351;28;20039;-61
2021/05/24 06:38:20;;;;;;;5.20;1.20;;;14.80;75.10;;;;;;5072184;28;20028;-61
2021/05/24 06:40:46;;;;;;;4.10;1.45;;;14.80;75.10;;;;;;5072396;28;20032;-61
2021/05/24 06:43:11;;;;;;;2.63;1.05;;;14.80;75.30;;;;;;5072407;28;20100;-61
2021/05/24 06:45:37;;;;;;;2.67;1.02;;;14.90;75.40;;;;;;5071614;28;20040;-61
2021/05/24 06:48:03;;;;;;;3.25;1.10;;;14.90;74.90;;;;;;5071991;28;20505;-61
2021/05/24 06:50:29;;;;;;;2.22;1.38;;;14.90;75.00;;;;;;5072285;28;20024;-61
2021/05/24 06:52:55;;;;;;;3.25;1.17;;;14.90;75.00;;;;;;5071360;28;20029;-63
2021/05/24 06:55:20;;;;;;;0.93;0.73;;;14.90;74.80;;;;;;5069678;28;20396;-61
2021/05/24 06:57:46;;;;;;;6.00;1.17;;;14.90;74.60;;;;;;5067091;28;20037;-60
2021/05/24 07:00:12;;;;;;;2.40;1.40;;;15.00;74.70;;;;;;5068928;28;20024;-62
2021/05/24 07:02:40;;;;;;;0.73;0.73;;;15.00;74.80;;;;;;5071530;28;20058;-61
2021/05/24 07:05:07;;;;;;;3.40;1.23;;;15.00;74.70;;;;;;5060741;28;20024;-60
2021/05/24 07:07:33;;;;;;;5.18;1.50;;;15.10;75.00;;;;;;5070062;28;20040;-61
2021/05/24 07:09:59;;;;;;;1.67;1.08;;;15.10;75.00;;;;;;5071427;28;20115;-61
2021/05/24 07:12:24;;;;;;;1.23;0.90;;;15.10;74.50;;;;;;5071248;28;20484;-60
2021/05/24 07:14:53;;;;;;;1.85;0.75;;;15.10;74.90;;;;;;5070841;28;20037;-60
2021/05/24 07:17:19;;;;;;;2.13;1.00;;;15.20;74.70;;;;;;5066154;28;20032;-67
2021/05/24 07:19:45;;;;;;;1.70;1.05;;;15.20;75.00;;;;;;5071181;28;20385;-61
2021/05/24 07:22:10;;;;;;;5.03;1.55;;;15.30;75.10;;;;;;5070633;28;20033;-60
2021/05/24 07:24:36;;;;;;;2.42;1.23;;;15.30;74.70;;;;;;5071555;28;20025;-60
2021/05/24 07:27:02;;;;;;;2.88;1.13;;;15.20;74.30;;;;;;5071153;28;20597;-61
2021/05/24 07:29:29;;;;;;;1.55;0.68;;;15.30;74.60;;;;;;5071202;28;20029;-61
2021/05/24 07:31:55;;;;;;;2.28;1.08;;;15.40;74.50;;;;;;5058058;28;20037;-68
2021/05/24 07:34:21;;;;;;;3.88;1.02;;;15.40;74.80;;;;;;5062916;28;20040;-60
2021/05/24 07:36:46;;;;;;;1.85;1.45;;;15.40;74.60;;;;;;5057063;28;20024;-60
2021/05/24 07:39:12;;;;;;;4.72;1.33;;;15.40;74.70;;;;;;5058432;28;20082;-60
2021/05/24 07:41:38;;;;;;;2.15;1.17;;;15.40;74.70;;;;;;5057841;28;20037;-60
2021/05/24 07:44:07;;;;;;;4.05;1.08;;;15.50;74.80;;;;;;5057640;28;20474;-60
2021/05/24 07:46:33;;;;;;;1.80;1.40;;;15.50;74.90;;;;;;5073564;28;20127;-60
2021/05/24 07:48:59;;;;;;;2.80;1.38;;;15.50;74.70;;;;;;5073805;28;20439;-60
2021/05/24 07:51:25;;;;;;;3.47;1.27;;;15.60;74.60;;;;;;5074473;28;20107;-60
2021/05/24 07:53:53;;;;;;;3.33;1.20;;;15.60;74.90;;;;;;5074612;28;20029;-60
2021/05/24 07:56:19;;;;;;;2.75;0.95;;;15.70;74.90;;;;;;5073803;28;20551;-60
2021/05/24 07:58:44;;;;;;;3.55;1.33;;;15.70;74.40;;;;;;5071971;28;20115;-59
2021/05/24 08:01:10;;;;;;;1.23;0.77;;;15.70;74.60;;;;;;5074145;28;20016;-60
2021/05/24 08:03:35;;;;;;;2.35;0.85;;;15.70;74.30;;;;;;5073677;28;20071;-59
2021/05/24 08:06:01;;;;;;;4.40;1.20;;;15.70;74.10;;;;;;5067388;28;20036;-60
2021/05/24 08:08:27;;;;;;;2.42;0.98;;;15.70;74.10;;;;;;5073884;28;20566;-60
2021/05/24 08:10:52;;;;;;;3.50;1.17;;;15.80;74.30;;;;;;5073807;28;20028;-60
2021/05/24 08:13:18;;;;;;;3.17;1.05;;;15.90;74.60;;;;;;5070334;28;20472;-60
2021/05/24 08:15:44;;;;;;;2.22;0.88;;;15.80;74.10;;;;;;5073882;28;20032;-60
2021/05/24 08:18:10;;;;;;;2.13;0.85;;;15.90;73.90;;;;;;5073517;28;20039;-59
2021/05/24 08:20:36;;;;;;;2.15;1.20;;;16.00;74.00;;;;;;5073834;28;20028;-60
2021/05/24 08:23:04;;;;;;;1.23;1.00;;;16.00;73.80;;;;;;5073679;28;20407;-60
2021/05/24 08:25:29;;;;;;;3.00;1.20;;;16.00;73.70;;;;;;5073229;28;20476;-60
2021/05/24 08:27:55;;;;;;;4.25;1.40;;;16.00;73.70;;;;;;5073795;28;20051;-60
2021/05/24 08:30:21;;;;;;;3.95;1.25;;;16.00;73.90;;;;;;5073310;28;20103;-60
2021/05/24 08:32:47;;;;;;;2.33;1.10;;;16.00;74.00;;;;;;5070388;28;20149;-60
2021/05/24 08:35:13;;;;;;;3.55;1.60;;;16.00;74.20;;;;;;5073545;28;20549;-60
2021/05/24 08:37:38;;;;;;;5.07;1.40;;;16.10;74.20;;;;;;5067629;28;20433;-60
2021/05/24 08:40:06;;;;;;;2.90;1.10;;;16.10;74.30;;;;;;5067995;28;20025;-60
2021/05/24 08:42:39;;;;;;;4.20;1.52;;;16.20;74.40;;;;;;5074132;28;20170;-61
2021/05/24 08:45:06;;;;;;;1.80;1.00;;;16.20;74.30;;;;;;5060025;28;20111;-60
2021/05/24 08:47:32;;;;;;;1.50;1.10;;;16.20;74.20;;;;;;5071981;28;20187;-62
2021/05/24 08:49:58;;;;;;;1.85;1.05;;;16.20;74.50;;;;;;5071825;28;20058;-59
2021/05/24 08:52:26;;;;;;;1.83;1.02;;;16.10;74.80;;;;;;5063518;28;20024;-59
2021/05/24 08:54:53;;;;;;;2.15;0.90;;;16.10;75.00;;;;;;5070447;28;20110;-59
2021/05/24 08:57:19;;;;;;;1.15;0.88;;;16.10;75.50;;;;;;5068057;28;20032;-59
2021/05/24 08:59:44;;;;;;;0.75;0.43;;;16.00;76.00;;;;;;5071219;28;20134;-59
2021/05/24 09:02:12;;;;;;;0.35;0.35;;;15.90;76.40;;;;;;5059016;28;20082;-59
2021/05/24 09:04:39;;;;;;;0.70;0.52;;;15.80;76.80;;;;;;5060944;28;20128;-59
2021/05/24 09:07:05;;;;;;;0.73;0.70;;;15.70;77.10;;;;;;5065537;28;20082;-60
2021/05/24 09:09:31;;;;;;;2.45;1.00;;;15.70;77.70;;;;;;5067582;28;20040;-60
2021/05/24 09:11:57;;;;;;;0.88;0.85;;;15.70;78.10;;;;;;5066413;28;20028;-60
2021/05/24 09:14:25;;;;;;;0.93;0.65;;;15.60;78.20;;;;;;5065767;28;20492;-59
2021/05/24 09:16:59;;;;;;;1.27;0.88;;;15.70;78.30;;;;;;5066318;28;20050;-60
2021/05/24 09:19:27;;;;;;;0.35;0.35;;;15.60;78.20;;;;;;5058901;28;20500;-60
2021/05/24 09:22:00;;;;;;;4.10;1.08;;;15.60;78.20;;;;;;5061249;28;20032;-60
2021/05/24 09:24:37;;;;;;;0.53;0.50;;;15.60;78.20;;;;;;5066231;28;20029;-60
2021/05/24 09:27:05;;;;;;;0.68;0.40;;;15.60;78.20;;;;;;5063015;28;20044;-60
2021/05/24 09:29:46;;;;;;;0.30;0.30;;;15.60;78.00;;;;;;5065221;28;20025;-60
2021/05/24 09:32:20;;;;;;;0.52;0.32;;;15.60;78.10;;;;;;5061802;28;20094;-59
2021/05/24 09:34:48;;;;;;;1.17;0.68;;;15.60;78.00;;;;;;5070282;28;20048;-60
2021/05/24 09:37:15;;;;;;;0.40;0.40;;;15.60;78.00;;;;;;5071842;28;20024;-60
2021/05/24 09:39:41;;;;;;;1.23;0.70;;;15.60;78.00;;;;;;5062139;28;20468;-60
2021/05/24 09:42:12;;;;;;;1.77;1.00;;;15.60;78.00;;;;;;5069165;28;20028;-60
2021/05/24 09:44:46;;;;;;;1.10;0.50;;;15.60;77.80;;;;;;5071518;28;20017;-60
2021/05/24 09:47:13;;;;;;;0.40;0.40;;;15.60;77.90;;;;;;5062458;28;20046;-60
2021/05/24 09:49:39;;;;;;;2.95;0.77;;;15.60;77.90;;;;;;5060608;28;20423;-60
2021/05/24 09:52:05;;;;;;;1.02;0.75;;;15.60;77.80;;;;;;5071599;28;20059;-60
2021/05/24 09:54:36;;;;;;;1.70;0.35;;;15.70;77.60;;;;;;5066887;28;20028;-60
2021/05/24 09:57:05;;;;;;;0.98;0.63;;;15.70;77.50;;;;;;5069076;28;20089;-60
2021/05/24 09:59:32;;;;;;;0.40;0.40;;;15.70;77.30;;;;;;5071673;28;20043;-60
2021/05/24 10:02:00;;;;;;;0.60;0.60;;;15.70;77.20;;;;;;5066637;28;20025;-63
2021/05/24 10:04:29;;;;;;;1.50;0.88;;;15.70;77.10;;;;;;5055100;28;20029;-61
2021/05/24 10:06:56;;;;;;;3.22;0.80;;;15.70;76.90;;;;;;5057349;28;20037;-61
2021/05/24 10:09:22;;;;;;;0.50;0.50;;;15.70;77.10;;;;;;5054356;28;20160;-60
2021/05/24 10:11:50;;;;;;;0.60;0.50;;;15.70;77.10;;;;;;5057416;28;20103;-60
2021/05/24 10:14:18;;;;;;;0.40;0.40;;;15.80;77.30;;;;;;5054726;28;20814;-60
2021/05/24 10:16:48;;;;;;;1.77;0.68;;;15.80;77.30;;;;;;5056075;28;20120;-61
2021/05/24 10:19:18;;;;;;;0.60;0.60;;;15.80;77.30;;;;;;5058556;28;20021;-61
2021/05/24 10:21:45;;;;;;;1.23;0.68;;;15.80;77.20;;;;;;5054066;28;20052;-60
2021/05/24 10:24:12;;;;;;;1.45;1.17;;;15.70;77.00;;;;;;5066033;28;20048;-60
2021/05/24 10:26:40;;;;;;;1.65;0.50;;;15.70;77.00;;;;;;5056805;28;20082;-60
2021/05/24 10:29:07;;;;;;;0.43;0.43;;;15.60;77.20;;;;;;5071330;28;20027;-60
2021/05/24 10:31:34;;;;;;;0.90;0.73;;;15.60;77.30;;;;;;5063169;28;20456;-61
2021/05/24 10:34:19;;;;;;;0.73;0.63;;;15.60;77.30;;;;;;5071738;28;20034;-68
2021/05/24 10:36:48;;;;;;;0.73;0.73;;;15.70;77.40;;;;;;5071919;28;20025;-60
2021/05/24 10:39:19;;;;;;;0.47;0.47;;;15.60;77.40;;;;;;5061600;28;20028;-60
2021/05/24 10:42:01;;;;;;;1.45;0.68;;;15.60;77.40;;;;;;5071958;28;20028;-60
2021/05/24 10:44:46;;;;;;;0.68;0.55;;;15.60;77.50;;;;;;5060785;28;20520;-60
2021/05/24 10:47:18;;;;;;;0.52;0.52;;;15.70;77.60;;;;;;5062542;28;20422;-60
2021/05/24 10:50:05;;;;;;;1.50;0.77;;;15.70;77.70;;;;;;5054313;28;20381;-60
2021/05/24 10:52:36;;;;;;;1.15;0.95;;;15.70;77.70;;;;;;5061684;28;20035;-60
2021/05/24 10:55:27;;;;;;;0.95;0.80;;;15.70;77.70;;;;;;5062347;28;20025;-60
2021/05/24 10:58:13;;;;;;;1.75;0.95;;;15.70;77.70;;;;;;5061007;28;20032;-60
2021/05/24 11:01:00;;;;;;;7.97;0.77;;;15.70;77.70;;;;;;5059805;28;20028;-63
2021/05/24 11:03:26;;;;;;;0.57;0.55;;;15.80;77.70;;;;;;5052970;28;20094;-60
2021/05/24 11:06:18;;;;;;;0.75;0.73;;;15.70;77.70;;;;;;5054138;28;21099;-60
2021/05/24 11:09:01;;;;;;;0.52;0.52;;;15.70;77.90;;;;;;5052754;28;20195;-60
2021/05/24 11:11:29;;;;;;;1.52;1.05;;;15.80;77.90;;;;;;5066573;28;20086;-60
2021/05/24 11:13:58;;;;;;;1.27;0.82;;;15.80;77.80;;;;;;5056160;28;20029;-60
2021/05/24 11:16:25;;;;;;;0.40;0.40;;;15.90;78.00;;;;;;5054151;28;20029;-60
2021/05/24 11:19:02;;;;;;;5.85;1.20;;;15.90;77.90;;;;;;5058567;28;20436;-60
2021/05/24 11:21:28;;;;;;;1.02;0.80;;;15.90;77.90;;;;;;5059944;28;20521;-60
2021/05/24 11:26:27;;;;;;;2.13;1.30;;;16.10;77.50;;;;;;5051079;28;20901;-61
2021/05/24 11:29:14;;;;;;;1.30;0.80;;;16.10;77.40;;;;;;5057918;28;20086;-61
2021/05/24 11:31:40;;;;;;;0.85;0.60;;;16.10;77.30;;;;;;5056367;28;20099;-60
2021/05/24 11:34:19;;;;;;;0.63;0.63;;;16.10;77.10;;;;;;5055961;28;20465;-60
2021/05/24 11:36:44;;;;;;;2.60;0.65;;;16.20;77.20;;;;;;5070371;28;20372;-60
2021/05/24 11:39:16;;;;;;;1.38;0.80;;;16.10;77.10;;;;;;5067670;28;20021;-60
2021/05/24 11:42:07;;;;;;;1.05;0.80;;;16.20;77.20;;;;;;5068899;28;20467;-60
2021/05/24 11:44:45;;;;;;;1.52;1.13;;;16.20;77.20;;;;;;5067943;28;20489;-60
2021/05/24 11:47:16;;;;;;;1.35;0.75;;;16.20;77.30;;;;;;5067756;28;20548;-60
2021/05/24 11:49:47;;;;;;;1.17;0.73;;;16.20;77.30;;;;;;5066479;28;20235;-60
2021/05/24 11:52:21;;;;;;;5.15;0.65;;;16.20;77.30;;;;;;5063294;28;20502;-60
2021/05/24 11:54:50;;;;;;;1.10;0.60;;;16.20;77.30;;;;;;5065854;28;20510;-60
2021/05/24 11:57:21;;;;;;;2.72;0.90;;;16.30;77.30;;;;;;5063623;28;20032;-60
2021/05/24 11:59:51;;;;;;;3.67;1.38;;;16.30;77.30;;;;;;5064490;28;20060;-61
2021/05/24 12:02:19;;;;;;;1.70;1.10;;;16.30;77.40;;;;;;5062765;28;20024;-61
2021/05/24 12:04:46;;;;;;;0.43;0.43;;;16.30;77.60;;;;;;5064952;28;20491;-60
2021/05/24 12:07:14;;;;;;;1.55;0.93;;;16.30;77.60;;;;;;5064181;28;20036;-60
2021/05/24 12:09:54;;;;;;;2.90;1.08;;;16.40;77.50;;;;;;5064320;28;20045;-61
2021/05/24 12:12:31;;;;;;;1.13;0.75;;;16.40;77.60;;;;;;5064175;28;20017;-60
2021/05/24 12:15:02;;;;;;;1.50;1.00;;;16.50;77.70;;;;;;5059803;28;20424;-60
2021/05/24 12:17:33;;;;;;;1.65;0.85;;;16.50;77.50;;;;;;5053772;28;20152;-60
2021/05/24 12:20:01;;;;;;;4.20;1.30;;;16.50;77.30;;;;;;5054106;28;20087;-60
2021/05/24 12:22:30;;;;;;;3.03;0.63;;;16.50;77.50;;;;;;5055949;28;20029;-61
2021/05/24 12:24:57;;;;;;;4.00;1.00;;;16.60;77.60;;;;;;5056675;28;20028;-67
2021/05/24 12:27:25;;;;;;;4.72;1.35;;;16.50;77.30;;;;;;5065230;28;20111;-62
2021/05/24 12:29:54;;;;;;;4.97;1.25;;;16.60;77.30;;;;;;5065460;28;20043;-60
2021/05/24 12:32:34;;;;;;;1.67;0.88;;;16.50;77.40;;;;;;5056056;28;20111;-60
2021/05/24 12:35:05;;;;;;;1.58;0.60;;;16.60;77.60;;;;;;5053605;28;20072;-60
2021/05/24 12:37:31;;;;;;;2.05;0.65;;;16.60;77.60;;;;;;5053382;28;20033;-60
2021/05/24 12:39:57;;;;;;;1.13;0.80;;;16.60;77.50;;;;;;5056736;28;20543;-60
2021/05/24 12:42:23;;;;;;;1.20;0.73;;;16.60;77.40;;;;;;5052893;28;20732;-60
2021/05/24 12:44:49;;;;;;;4.90;1.00;;;16.70;77.40;;;;;;5061877;28;20024;-60
2021/05/24 12:47:17;;;;;;;1.92;1.00;;;16.70;77.30;;;;;;5063698;28;20050;-60
2021/05/24 12:49:46;;;;;;;2.45;0.88;;;16.70;77.30;;;;;;5063446;28;20037;-60
2021/05/24 12:52:12;;;;;;;1.42;1.33;;;16.80;77.30;;;;;;5062872;28;20020;-60